createdAt,value
2017-09-25T00:02:12.083Z,12.70
2017-09-25T00:04:39.918Z,12.70
2017-09-25T00:07:08.527Z,12.70
2017-09-25T00:09:36.293Z,12.70
2017-09-25T00:12:04.103Z,12.70
2017-09-25T00:14:31.873Z,12.60
2017-09-25T00:17:00.214Z,12.60
2017-09-25T00:19:27.984Z,12.50
2017-09-25T00:21:55.738Z,12.50
2017-09-25T00:24:23.540Z,12.50
2017-09-25T00:26:51.313Z,12.40
2017-09-25T00:29:19.123Z,12.40
2017-09-25T00:31:46.894Z,12.40
2017-09-25T00:34:14.963Z,12.40
2017-09-25T00:36:42.769Z,12.30
2017-09-25T00:39:10.533Z,12.30
2017-09-25T00:41:38.382Z,12.30
2017-09-25T00:44:06.141Z,12.30
2017-09-25T00:46:33.898Z,12.30
2017-09-25T00:49:01.692Z,12.30
2017-09-25T00:51:29.473Z,12.20
2017-09-25T00:53:58.107Z,12.20
2017-09-25T00:56:25.883Z,12.30
2017-09-25T00:58:53.687Z,12.30
2017-09-25T01:01:21.516Z,12.30
2017-09-25T01:03:54.283Z,12.30
2017-09-25T01:06:25.884Z,12.20
2017-09-25T01:08:53.646Z,12.20
2017-09-25T01:11:21.459Z,12.20
2017-09-25T01:13:49.241Z,12.30
2017-09-25T01:16:17.007Z,12.20
2017-09-25T01:18:44.801Z,12.20
2017-09-25T01:21:12.572Z,12.20
2017-09-25T01:23:41.586Z,12.20
2017-09-25T01:26:09.379Z,12.20
2017-09-25T01:28:37.143Z,12.10
2017-09-25T01:31:04.948Z,12.20
2017-09-25T01:33:32.718Z,12.20
2017-09-25T01:36:01.315Z,12.20
2017-09-25T01:38:29.919Z,12.20
2017-09-25T01:40:57.676Z,12.20
2017-09-25T01:43:25.461Z,12.20
2017-09-25T01:45:53.223Z,12.20
2017-09-25T01:48:21.039Z,12.30
2017-09-25T01:50:48.800Z,12.30
2017-09-25T01:53:17.322Z,12.40
2017-09-25T01:55:45.123Z,12.30
2017-09-25T01:58:13.663Z,12.40
2017-09-25T02:00:41.484Z,12.30
2017-09-25T02:03:09.251Z,12.40
2017-09-25T02:05:37.026Z,12.40
2017-09-25T02:08:05.592Z,12.40
2017-09-25T02:10:33.383Z,12.40
2017-09-25T02:13:01.211Z,12.40
2017-09-25T02:15:29.732Z,12.40
2017-09-25T02:17:57.490Z,12.40
2017-09-25T02:20:25.294Z,12.50
2017-09-25T02:22:53.074Z,12.50
2017-09-25T02:25:21.657Z,12.50
2017-09-25T02:27:50.185Z,12.60
2017-09-25T02:30:17.964Z,12.60
2017-09-25T02:32:45.776Z,12.50
2017-09-25T02:35:13.542Z,12.60
2017-09-25T02:37:41.376Z,12.60
2017-09-25T02:40:09.924Z,12.60
2017-09-25T02:42:37.690Z,12.60
2017-09-25T02:45:05.503Z,12.60
2017-09-25T02:47:33.286Z,12.70
2017-09-25T02:50:01.124Z,12.70
2017-09-25T02:52:28.896Z,12.70
2017-09-25T02:54:56.652Z,12.70
2017-09-25T02:57:24.444Z,12.70
2017-09-25T02:59:52.217Z,12.60
2017-09-25T03:02:20.041Z,12.50
2017-09-25T03:04:47.812Z,12.50
2017-09-25T03:07:15.588Z,12.50
2017-09-25T03:09:43.413Z,12.50
2017-09-25T03:12:11.188Z,12.50
2017-09-25T03:14:39.010Z,12.50
2017-09-25T03:17:06.800Z,12.50
2017-09-25T03:19:35.335Z,12.50
2017-09-25T03:22:03.182Z,12.50
2017-09-25T03:24:30.956Z,12.50
2017-09-25T03:26:58.809Z,12.40
2017-09-25T03:29:26.576Z,12.50
2017-09-25T03:31:54.343Z,12.40
2017-09-25T03:34:22.137Z,12.40
2017-09-25T03:36:50.671Z,12.30
2017-09-25T03:39:18.516Z,12.30
2017-09-25T03:41:46.289Z,12.30
2017-09-25T03:44:14.060Z,12.30
2017-09-25T03:46:41.859Z,12.40
2017-09-25T03:49:09.645Z,12.40
2017-09-25T03:51:38.239Z,12.40
2017-09-25T03:54:06.020Z,12.40
2017-09-25T03:56:33.786Z,12.30
2017-09-25T03:59:01.584Z,12.30
2017-09-25T04:01:29.352Z,12.40
2017-09-25T04:03:57.176Z,12.40
2017-09-25T04:06:24.943Z,12.40
2017-09-25T04:08:52.722Z,12.50
2017-09-25T04:11:20.622Z,12.60
2017-09-25T04:13:49.165Z,12.50
2017-09-25T04:16:16.998Z,12.50
2017-09-25T04:18:44.768Z,12.50
2017-09-25T04:21:12.518Z,12.60
2017-09-25T04:23:40.384Z,12.50
2017-09-25T04:26:08.175Z,12.50
2017-09-25T04:28:36.013Z,12.40
2017-09-25T04:31:03.790Z,12.40
2017-09-25T04:33:31.561Z,12.40
2017-09-25T04:35:59.369Z,12.40
2017-09-25T04:38:27.913Z,12.60
2017-09-25T04:40:55.744Z,12.60
2017-09-25T04:43:23.521Z,12.40
2017-09-25T04:45:51.299Z,12.40
2017-09-25T04:48:19.120Z,12.50
2017-09-25T04:50:46.888Z,12.50
2017-09-25T04:53:15.493Z,12.50
2017-09-25T04:55:43.248Z,12.50
2017-09-25T04:58:11.025Z,12.50
2017-09-25T05:00:38.819Z,12.50
2017-09-25T05:03:07.360Z,12.50
2017-09-25T05:05:35.188Z,12.50
2017-09-25T05:08:02.965Z,12.50
2017-09-25T05:10:30.720Z,12.50
2017-09-25T05:12:58.507Z,12.50
2017-09-25T05:15:27.267Z,12.50
2017-09-25T05:17:55.079Z,12.50
2017-09-25T05:20:22.844Z,12.50
2017-09-25T05:22:50.612Z,12.50
2017-09-25T05:25:19.167Z,12.50
2017-09-25T05:27:46.922Z,12.50
2017-09-25T05:30:14.745Z,12.50
2017-09-25T05:32:42.520Z,12.50
2017-09-25T05:35:10.323Z,12.50
2017-09-25T05:37:38.120Z,12.50
2017-09-25T05:40:06.640Z,12.50
2017-09-25T05:42:34.467Z,12.50
2017-09-25T05:45:02.245Z,12.50
2017-09-25T05:47:30.013Z,12.50
2017-09-25T05:49:57.819Z,12.50
2017-09-25T05:52:25.585Z,12.50
2017-09-25T05:54:53.421Z,12.50
2017-09-25T05:57:21.332Z,12.50
2017-09-25T05:59:49.860Z,12.70
2017-09-25T06:02:17.646Z,12.70
2017-09-25T06:04:45.413Z,12.70
2017-09-25T06:07:13.244Z,12.70
2017-09-25T06:09:41.005Z,12.70
2017-09-25T06:12:08.771Z,12.70
2017-09-25T06:14:36.571Z,12.70
2017-09-25T06:17:04.336Z,12.70
2017-09-25T06:19:32.924Z,12.70
2017-09-25T06:22:01.458Z,12.70
2017-09-25T06:24:29.269Z,12.70
2017-09-25T06:26:57.851Z,12.90
2017-09-25T06:29:26.384Z,12.90
2017-09-25T06:31:54.167Z,12.90
2017-09-25T06:34:21.920Z,12.90
2017-09-25T06:36:49.738Z,12.90
2017-09-25T06:39:17.486Z,12.90
2017-09-25T06:41:45.248Z,13.00
2017-09-25T06:44:13.066Z,13.10
2017-09-25T06:46:40.823Z,13.10
2017-09-25T06:49:08.646Z,13.10
2017-09-25T06:51:36.409Z,13.30
2017-09-25T06:54:04.186Z,13.30
2017-09-25T06:56:31.994Z,13.30
2017-09-25T06:58:59.790Z,13.30
2017-09-25T07:01:27.660Z,13.30
2017-09-25T07:03:55.449Z,13.40
2017-09-25T07:06:23.214Z,13.50
2017-09-25T07:08:51.067Z,13.70
2017-09-25T07:11:18.852Z,13.80
2017-09-25T07:13:46.674Z,14.00
2017-09-25T07:16:14.464Z,14.00
2017-09-25T07:18:42.231Z,14.20
2017-09-25T07:21:10.033Z,14.20
2017-09-25T07:23:38.583Z,14.40
2017-09-25T07:26:06.446Z,14.40
2017-09-25T07:28:34.246Z,14.40
2017-09-25T07:31:02.927Z,14.50
2017-09-25T07:33:30.742Z,14.70
2017-09-25T07:35:58.519Z,15.10
2017-09-25T07:38:26.375Z,15.60
2017-09-25T07:40:54.144Z,15.90
2017-09-25T07:43:21.903Z,16.30
2017-09-25T07:45:49.713Z,16.30
2017-09-25T07:48:17.488Z,16.60
2017-09-25T07:50:45.346Z,16.90
2017-09-25T07:53:13.122Z,16.80
2017-09-25T07:55:40.904Z,16.50
2017-09-25T07:58:08.712Z,16.10
2017-09-25T08:00:37.262Z,15.80
2017-09-25T08:03:05.084Z,15.80
2017-09-25T08:05:32.859Z,15.60
2017-09-25T08:08:00.620Z,15.60
2017-09-25T08:10:28.427Z,16.00
2017-09-25T08:12:56.986Z,16.70
2017-09-25T08:15:24.816Z,16.70
2017-09-25T08:17:52.589Z,18.90
2017-09-25T08:20:21.173Z,20.90
2017-09-25T08:22:48.976Z,20.80
2017-09-25T08:25:17.519Z,18.70
2017-09-25T08:27:45.353Z,18.70
2017-09-25T08:30:13.114Z,18.20
2017-09-25T08:32:40.892Z,17.80
2017-09-25T08:35:08.711Z,18.90
2017-09-25T08:37:37.299Z,21.60
2017-09-25T08:40:05.895Z,21.00
2017-09-25T08:42:33.664Z,21.00
2017-09-25T08:45:01.422Z,19.60
2017-09-25T08:47:29.238Z,18.90
2017-09-25T08:49:57.015Z,19.70
2017-09-25T08:52:25.611Z,19.70
2017-09-25T08:54:54.150Z,19.20
2017-09-25T08:57:21.904Z,19.20
2017-09-25T08:59:49.705Z,20.10
2017-09-25T09:02:18.236Z,21.70
2017-09-25T09:04:46.059Z,21.70
2017-09-25T09:07:13.836Z,20.40
2017-09-25T09:09:41.614Z,19.10
2017-09-25T09:12:09.412Z,18.30
2017-09-25T09:14:37.180Z,18.30
2017-09-25T09:17:05.024Z,18.90
2017-09-25T09:19:32.796Z,19.10
2017-09-25T09:22:00.581Z,18.80
2017-09-25T09:24:29.558Z,18.10
2017-09-25T09:26:57.322Z,18.10
2017-09-25T09:29:25.153Z,17.80
2017-09-25T09:31:52.928Z,17.70
2017-09-25T09:34:20.697Z,17.80
2017-09-25T09:36:48.504Z,17.70
2017-09-25T09:39:16.280Z,17.80
2017-09-25T09:41:44.288Z,18.00
2017-09-25T09:44:12.059Z,18.50
2017-09-25T09:46:39.828Z,18.70
2017-09-25T09:49:08.401Z,18.40
2017-09-25T09:51:36.168Z,18.40
2017-09-25T09:54:03.992Z,18.50
2017-09-25T09:56:31.777Z,18.60
2017-09-25T09:58:59.564Z,18.40
2017-09-25T10:01:28.128Z,18.50
2017-09-25T10:03:55.916Z,18.50
2017-09-25T10:06:24.517Z,18.50
2017-09-25T10:08:52.300Z,18.50
2017-09-25T10:11:20.064Z,18.80
2017-09-25T10:13:47.877Z,18.80
2017-09-25T10:16:16.415Z,18.00
2017-09-25T10:18:44.280Z,18.00
2017-09-25T10:21:12.056Z,18.10
2017-09-25T10:23:39.824Z,18.10
2017-09-25T10:26:07.633Z,17.80
2017-09-25T10:28:35.403Z,17.90
2017-09-25T10:31:03.244Z,18.10
2017-09-25T10:33:31.784Z,18.70
2017-09-25T10:35:59.563Z,18.70
2017-09-25T10:38:27.391Z,18.90
2017-09-25T10:40:55.163Z,18.90
2017-09-25T10:43:22.988Z,18.50
2017-09-25T10:45:50.764Z,18.20
2017-09-25T10:48:18.538Z,18.10
2017-09-25T10:50:46.344Z,17.80
2017-09-25T10:53:14.880Z,17.70
2017-09-25T10:55:42.713Z,17.70
2017-09-25T10:58:10.486Z,18.10
2017-09-25T11:00:38.269Z,18.00
2017-09-25T11:03:06.075Z,17.80
2017-09-25T11:05:33.840Z,17.50
2017-09-25T11:08:02.439Z,17.30
2017-09-25T11:10:30.249Z,17.30
2017-09-25T11:12:58.029Z,17.40
2017-09-25T11:15:25.833Z,17.50
2017-09-25T11:17:53.602Z,17.70
2017-09-25T11:20:21.463Z,17.70
2017-09-25T11:22:49.225Z,17.80
2017-09-25T11:25:16.989Z,17.90
2017-09-25T11:27:44.799Z,17.80
2017-09-25T11:30:12.572Z,17.70
2017-09-25T11:32:41.165Z,17.60
2017-09-25T11:35:09.709Z,17.50
2017-09-25T11:37:37.479Z,17.50
2017-09-25T11:40:05.291Z,17.50
2017-09-25T11:42:33.061Z,17.70
2017-09-25T11:45:00.885Z,17.90
2017-09-25T11:47:29.420Z,18.30
2017-09-25T11:49:57.200Z,18.20
2017-09-25T11:52:25.032Z,18.40
2017-09-25T11:54:52.812Z,18.40
2017-09-25T11:57:20.585Z,18.40
2017-09-25T11:59:48.389Z,18.40
2017-09-25T12:02:16.950Z,18.90
2017-09-25T12:04:45.504Z,18.80
2017-09-25T12:07:13.792Z,18.80
2017-09-25T12:09:41.572Z,18.70
2017-09-25T12:12:10.114Z,18.80
2017-09-25T12:14:37.929Z,18.80
2017-09-25T12:17:06.475Z,18.80
2017-09-25T12:19:34.313Z,18.80
2017-09-25T12:22:02.092Z,18.90
2017-09-25T12:24:29.866Z,19.00
2017-09-25T12:26:57.677Z,19.10
2017-09-25T12:29:25.452Z,18.90
2017-09-25T12:31:54.051Z,19.30
2017-09-25T12:34:21.832Z,19.30
2017-09-25T12:36:49.607Z,19.30
2017-09-25T12:39:17.424Z,19.40
2017-09-25T12:41:45.201Z,19.50
2017-09-25T12:44:13.069Z,19.10
2017-09-25T12:46:40.864Z,18.90
2017-09-25T12:49:09.418Z,18.40
2017-09-25T12:51:37.224Z,18.40
2017-09-25T12:54:05.770Z,18.20
2017-09-25T12:56:33.616Z,18.20
2017-09-25T12:59:01.403Z,18.00
2017-09-25T13:01:29.172Z,18.00
2017-09-25T13:03:57.745Z,17.90
2017-09-25T13:06:25.516Z,17.90
2017-09-25T13:08:54.131Z,18.00
2017-09-25T13:11:21.897Z,17.90
2017-09-25T13:13:49.705Z,18.10
2017-09-25T13:16:17.515Z,18.00
2017-09-25T13:18:45.293Z,18.10
2017-09-25T13:21:13.123Z,17.90
2017-09-25T13:23:41.659Z,18.10
2017-09-25T13:26:09.469Z,18.00
2017-09-25T13:28:37.293Z,18.20
2017-09-25T13:31:05.072Z,18.10
2017-09-25T13:33:33.669Z,17.80
2017-09-25T13:36:02.224Z,17.70
2017-09-25T13:38:29.993Z,17.60
2017-09-25T13:40:57.791Z,17.60
2017-09-25T13:43:25.568Z,17.60
2017-09-25T13:45:53.395Z,17.60
2017-09-25T13:48:21.932Z,17.80
2017-09-25T13:50:49.706Z,17.80
2017-09-25T13:53:17.516Z,17.80
2017-09-25T13:55:45.297Z,17.80
2017-09-25T13:58:13.128Z,17.70
2017-09-25T14:03:14.628Z,17.70
2017-09-25T14:05:42.413Z,17.70
2017-09-25T14:08:10.189Z,17.60
2017-09-25T14:10:37.985Z,17.50
2017-09-25T14:13:05.781Z,17.50
2017-09-25T14:15:33.625Z,17.40
2017-09-25T14:18:01.418Z,17.40
2017-09-25T14:20:29.195Z,17.30
2017-09-25T14:22:57.008Z,17.30
2017-09-25T14:25:24.776Z,17.40
2017-09-25T14:27:52.608Z,17.50
2017-09-25T14:30:21.146Z,17.70
2017-09-25T14:32:48.928Z,17.70
2017-09-25T14:35:16.802Z,17.70
2017-09-25T14:37:44.571Z,17.80
2017-09-25T14:40:13.172Z,17.70
2017-09-25T14:42:41.700Z,17.70
2017-09-25T14:45:09.471Z,17.70
2017-09-25T14:47:37.344Z,17.70
2017-09-25T14:50:05.126Z,17.70
2017-09-25T14:52:33.735Z,17.70
2017-09-25T14:55:01.512Z,17.70
2017-09-25T14:57:29.281Z,17.80
2017-09-25T14:59:57.095Z,17.80
2017-09-25T15:02:25.648Z,17.90
2017-09-25T15:04:53.490Z,17.80
2017-09-25T15:07:21.273Z,17.90
2017-09-25T15:09:49.050Z,17.80
2017-09-25T15:12:17.637Z,17.90
2017-09-25T15:14:46.173Z,17.80
2017-09-25T15:17:14.001Z,17.70
2017-09-25T15:19:41.772Z,17.70
2017-09-25T15:22:09.532Z,17.60
2017-09-25T15:24:37.337Z,17.50
2017-09-25T15:27:05.107Z,17.50
2017-09-25T15:29:32.935Z,17.40
2017-09-25T15:32:00.703Z,17.40
2017-09-25T15:34:28.473Z,17.40
2017-09-25T15:36:56.280Z,17.30
2017-09-25T15:39:24.816Z,17.30
2017-09-25T15:41:53.560Z,17.30
2017-09-25T15:44:21.502Z,17.20
2017-09-25T15:46:49.302Z,17.20
2017-09-25T15:49:17.107Z,17.20
2017-09-25T15:51:44.899Z,17.10
2017-09-25T15:54:12.768Z,17.00
2017-09-25T15:56:41.322Z,17.10
2017-09-25T15:59:09.176Z,17.10
2017-09-25T16:01:37.002Z,17.10
2017-09-25T16:04:04.813Z,17.00
2017-09-25T16:06:32.639Z,17.00
2017-09-25T16:09:00.425Z,17.00
2017-09-25T16:11:28.191Z,16.90
2017-09-25T16:13:55.988Z,16.90
2017-09-25T16:16:25.339Z,16.70
2017-09-25T16:18:53.176Z,16.70
2017-09-25T16:21:20.966Z,16.70
2017-09-25T16:23:48.734Z,16.60
2017-09-25T16:26:16.552Z,16.50
2017-09-25T16:28:44.317Z,16.40
2017-09-25T16:31:12.150Z,16.30
2017-09-25T16:33:39.924Z,16.20
2017-09-25T16:36:08.488Z,16.20
2017-09-25T16:38:36.297Z,16.20
2017-09-25T16:41:04.091Z,16.20
2017-09-25T16:43:31.934Z,16.10
2017-09-25T16:45:59.733Z,16.00
2017-09-25T16:48:27.509Z,15.90
2017-09-25T16:50:56.913Z,15.80
2017-09-25T16:53:25.452Z,15.80
2017-09-25T16:55:53.281Z,15.80
2017-09-25T16:58:21.048Z,15.90
2017-09-25T17:00:48.816Z,16.00
2017-09-25T17:03:16.633Z,15.90
2017-09-25T17:05:45.177Z,15.80
2017-09-25T17:08:13.064Z,15.80
2017-09-25T17:10:40.844Z,15.80
2017-09-25T17:13:09.399Z,15.70
2017-09-25T17:15:37.233Z,15.70
2017-09-25T17:18:05.003Z,15.70
2017-09-25T17:20:32.849Z,15.60
2017-09-25T17:23:00.673Z,15.70
2017-09-25T17:25:29.216Z,15.50
2017-09-25T17:27:57.018Z,15.50
2017-09-25T17:30:25.568Z,15.30
2017-09-25T17:32:53.407Z,15.40
2017-09-25T17:35:21.206Z,15.30
2017-09-25T17:37:49.807Z,15.30
2017-09-25T17:40:18.377Z,15.20
2017-09-25T17:42:46.145Z,15.20
2017-09-25T17:45:14.739Z,15.00
2017-09-25T17:47:43.272Z,15.00
2017-09-25T17:50:11.051Z,15.00
2017-09-25T17:52:38.864Z,15.00
2017-09-25T17:55:06.653Z,15.00
2017-09-25T17:57:34.480Z,15.00
2017-09-25T18:00:02.258Z,15.00
2017-09-25T18:02:30.043Z,14.90
2017-09-25T18:04:57.838Z,14.90
2017-09-25T18:07:26.385Z,14.90
2017-09-25T18:09:54.220Z,14.90
2017-09-25T18:12:21.997Z,14.80
2017-09-25T18:14:49.767Z,14.80
2017-09-25T18:17:17.640Z,14.80
2017-09-25T18:19:45.428Z,14.80
2017-09-25T18:22:13.267Z,14.70
2017-09-25T18:24:41.059Z,14.70
2017-09-25T18:27:09.612Z,14.70
2017-09-25T18:29:37.419Z,14.60
2017-09-25T18:32:05.194Z,14.70
2017-09-25T18:34:33.017Z,14.60
2017-09-25T18:37:00.804Z,14.70
2017-09-25T18:39:29.344Z,14.70
2017-09-25T18:41:57.150Z,14.60
2017-09-25T18:44:24.926Z,14.60
2017-09-25T18:46:52.754Z,14.60
2017-09-25T18:49:20.535Z,14.40
2017-09-25T18:51:48.311Z,14.40
2017-09-25T18:54:16.117Z,14.50
2017-09-25T18:56:43.887Z,14.40
2017-09-25T18:59:11.730Z,14.40
2017-09-25T19:01:39.534Z,14.40
2017-09-25T19:04:08.086Z,14.30
2017-09-25T19:06:35.933Z,14.30
2017-09-25T19:09:03.737Z,14.30
2017-09-25T19:11:32.329Z,14.30
2017-09-25T19:14:00.869Z,14.20
2017-09-25T19:16:28.640Z,14.20
2017-09-25T19:18:56.453Z,14.20
2017-09-25T19:21:24.275Z,14.20
2017-09-25T19:23:52.107Z,14.20
2017-09-25T19:26:19.894Z,14.20
2017-09-25T19:28:47.695Z,14.20
2017-09-25T19:31:15.501Z,14.30
2017-09-25T19:33:43.912Z,14.30
2017-09-25T19:36:12.515Z,14.30
2017-09-25T19:38:40.284Z,14.30
2017-09-25T19:41:08.184Z,14.30
2017-09-25T19:43:36.754Z,14.40
2017-09-25T19:46:04.545Z,14.40
2017-09-25T19:48:38.093Z,14.50
2017-09-25T19:51:19.671Z,14.50
2017-09-25T19:53:48.154Z,14.50
2017-09-25T19:56:16.732Z,14.50
2017-09-25T19:58:45.160Z,14.50
2017-09-25T20:01:12.971Z,14.40
2017-09-25T20:03:40.755Z,14.40
2017-09-25T20:06:08.592Z,14.40
2017-09-25T20:08:36.370Z,14.50
2017-09-25T20:11:04.633Z,14.50
2017-09-25T20:13:32.438Z,14.50
2017-09-25T20:16:06.622Z,14.60
2017-09-25T20:18:34.441Z,14.60
2017-09-25T20:21:02.993Z,14.60
2017-09-25T20:23:30.845Z,14.60
2017-09-25T20:25:58.622Z,14.60
2017-09-25T20:28:26.390Z,14.50
2017-09-25T20:30:54.183Z,14.50
2017-09-25T20:33:21.952Z,14.50
2017-09-25T20:35:50.548Z,14.40
2017-09-25T20:38:18.329Z,14.40
2017-09-25T20:40:56.090Z,14.40
2017-09-25T20:43:23.887Z,14.40
2017-09-25T20:45:51.676Z,14.40
2017-09-25T20:48:19.488Z,14.40
2017-09-25T20:50:47.255Z,14.40
2017-09-25T20:53:15.094Z,14.30
2017-09-25T20:55:43.639Z,14.30
2017-09-25T20:58:11.408Z,14.30
2017-09-25T21:00:39.203Z,14.40
2017-09-25T21:03:07.734Z,14.30
2017-09-25T21:05:35.569Z,14.30
2017-09-25T21:08:03.380Z,14.30
2017-09-25T21:10:31.941Z,14.20
2017-09-25T21:12:59.748Z,14.20
2017-09-25T21:15:28.301Z,14.30
2017-09-25T21:17:56.137Z,14.30
2017-09-25T21:20:23.923Z,14.20
2017-09-25T21:22:51.708Z,14.20
2017-09-25T21:25:20.285Z,14.20
2017-09-25T21:27:48.853Z,14.20
2017-09-25T21:30:16.682Z,14.20
2017-09-25T21:32:44.448Z,14.10
2017-09-25T21:35:12.225Z,14.10
2017-09-25T21:37:40.021Z,14.10
2017-09-25T21:40:08.555Z,14.00
2017-09-25T21:42:36.474Z,14.00
2017-09-25T21:45:04.241Z,13.90
2017-09-25T21:47:32.018Z,13.90
2017-09-25T21:49:59.853Z,13.90
2017-09-25T21:52:28.393Z,13.90
2017-09-25T21:54:56.987Z,13.90
2017-09-25T21:57:24.755Z,13.80
2017-09-25T21:59:52.530Z,13.90
2017-09-25T22:02:21.096Z,13.90
2017-09-25T22:04:48.882Z,13.90
2017-09-25T22:07:17.479Z,13.90
2017-09-25T22:09:45.257Z,13.90
2017-09-25T22:12:13.021Z,13.90
2017-09-25T22:14:40.844Z,13.80
2017-09-25T22:17:09.394Z,13.80
2017-09-25T22:19:37.211Z,13.80
2017-09-25T22:22:04.974Z,13.80
2017-09-25T22:24:32.795Z,13.80
2017-09-25T22:27:00.592Z,13.80
2017-09-25T22:29:28.364Z,13.90
2017-09-25T22:31:56.199Z,13.90
2017-09-25T22:34:24.749Z,13.80
2017-09-25T22:36:52.535Z,13.80
2017-09-25T22:39:21.107Z,13.80
2017-09-25T22:41:49.673Z,13.60
2017-09-25T22:44:23.226Z,13.60
2017-09-25T22:46:51.000Z,13.60
2017-09-25T22:49:18.836Z,13.60
2017-09-25T22:51:47.375Z,13.50
2017-09-25T22:54:15.154Z,13.50
2017-09-25T22:56:42.959Z,13.50
2017-09-25T22:59:10.738Z,13.50
2017-09-25T23:01:38.572Z,13.60
2017-09-25T23:04:21.266Z,13.60
2017-09-25T23:06:49.858Z,13.50
2017-09-25T23:09:28.315Z,13.50
2017-09-25T23:11:56.929Z,13.40
2017-09-25T23:14:25.476Z,13.50
2017-09-25T23:16:53.283Z,13.50
2017-09-25T23:19:21.844Z,13.50
2017-09-25T23:21:49.627Z,13.50
2017-09-25T23:24:18.215Z,13.40
2017-09-25T23:26:46.761Z,13.30
2017-09-25T23:29:14.539Z,13.30
2017-09-25T23:31:42.436Z,13.30
2017-09-25T23:34:10.203Z,13.30
2017-09-25T23:36:38.031Z,13.30
2017-09-25T23:39:05.797Z,13.20
2017-09-25T23:41:34.331Z,13.10
2017-09-25T23:44:02.892Z,13.10
2017-09-25T23:46:30.659Z,13.10
2017-09-25T23:48:58.485Z,13.00
2017-09-25T23:51:27.079Z,13.00
2017-09-25T23:53:54.848Z,13.00
2017-09-25T23:56:22.635Z,13.00
2017-09-25T23:58:50.396Z,13.00
